createdAt,value
2023-03-04T00:02:23.760Z,102762.84
2023-03-04T00:07:20.746Z,102768.91
2023-03-04T00:12:11.618Z,102767.84
2023-03-04T00:17:08.265Z,102775.44
2023-03-04T00:22:02.336Z,102776.25
2023-03-04T00:26:56.587Z,102775.34
2023-03-04T00:31:46.695Z,102772.53
2023-03-04T00:36:36.361Z,102766.72
2023-03-04T00:41:26.145Z,102762.25
2023-03-04T00:46:19.281Z,102773.84
2023-03-04T00:51:12.875Z,102757.34
2023-03-04T00:56:09.245Z,102765.22
2023-03-04T01:01:03.116Z,102767.88
2023-03-04T01:05:57.144Z,102770.38
2023-03-04T01:10:49.312Z,102773.44
2023-03-04T01:15:48.982Z,102758.19
2023-03-04T01:20:41.788Z,102764.31
2023-03-04T01:25:37.185Z,102765.75
2023-03-04T01:30:29.313Z,102760.78
2023-03-04T01:35:20.435Z,102754.00
2023-03-04T01:40:12.830Z,102746.63
2023-03-04T01:45:07.962Z,102734.63
2023-03-04T01:50:00.437Z,102727.53
2023-03-04T01:54:53.162Z,102724.00
2023-03-04T01:59:46.013Z,102714.75
2023-03-04T02:04:46.858Z,102715.72
2023-03-04T02:09:37.287Z,102710.41
2023-03-04T02:14:28.404Z,102703.75
2023-03-04T02:19:28.082Z,102693.25
2023-03-04T02:24:26.481Z,102689.84
2023-03-04T02:29:21.515Z,102687.91
2023-03-04T02:34:19.191Z,102688.81
2023-03-04T02:39:16.514Z,102685.31
2023-03-04T02:44:18.536Z,102684.44
2023-03-04T02:49:19.560Z,102678.41
2023-03-04T02:54:17.941Z,102675.03
2023-03-04T02:59:08.388Z,102674.34
2023-03-04T03:03:58.073Z,102679.31
2023-03-04T03:08:53.852Z,102674.25
2023-03-04T03:13:47.028Z,102668.38
2023-03-04T03:18:38.790Z,102664.16
2023-03-04T03:23:37.509Z,102664.25
2023-03-04T03:28:37.191Z,102664.44
2023-03-04T03:33:31.634Z,102656.72
2023-03-04T03:38:28.223Z,102658.25
2023-03-04T03:43:18.634Z,102653.09
2023-03-04T03:48:12.954Z,102655.69
2023-03-04T03:53:03.052Z,102656.72
2023-03-04T03:57:55.664Z,102659.31
2023-03-04T04:02:50.059Z,102660.13
2023-03-04T04:07:45.520Z,102661.91
2023-03-04T04:12:36.454Z,102665.44
2023-03-04T04:17:28.548Z,102663.69
2023-03-04T04:22:21.594Z,102663.44
2023-03-04T04:27:19.098Z,102665.31
2023-03-04T04:32:13.661Z,102664.34
2023-03-04T04:37:06.753Z,102663.56
2023-03-04T04:41:57.488Z,102666.00
2023-03-04T04:46:49.987Z,102666.97
2023-03-04T04:51:40.526Z,102664.47
2023-03-04T04:56:30.531Z,102669.59
2023-03-04T05:01:20.873Z,102675.38
2023-03-04T05:06:17.706Z,102676.41
2023-03-04T05:11:22.669Z,102675.41
2023-03-04T05:16:15.190Z,102671.03
2023-03-04T05:21:09.918Z,102675.88
2023-03-04T05:26:11.029Z,102669.28
2023-03-04T05:31:06.825Z,102669.28
2023-03-04T05:35:56.565Z,102672.56
2023-03-04T05:40:46.478Z,102676.00
2023-03-04T05:45:39.569Z,102671.78
2023-03-04T05:50:34.154Z,102675.31
2023-03-04T05:55:27.981Z,102674.06
2023-03-04T06:00:21.249Z,102677.91
2023-03-04T06:05:19.322Z,102676.25
2023-03-04T06:10:21.496Z,102673.47
2023-03-04T06:15:24.943Z,102674.53
2023-03-04T06:20:18.015Z,102678.81
2023-03-04T06:25:09.761Z,102671.84
2023-03-04T06:30:02.564Z,102679.53
2023-03-04T06:34:55.963Z,102677.75
2023-03-04T06:39:53.969Z,102676.94
2023-03-04T06:44:53.047Z,102681.78
2023-03-04T06:49:58.811Z,102686.09
2023-03-04T06:54:51.445Z,102682.88
2023-03-04T06:59:41.224Z,102685.47
2023-03-04T07:04:30.980Z,102696.66
2023-03-04T07:09:20.525Z,102699.66
2023-03-04T07:14:15.930Z,102693.84
2023-03-04T07:19:07.847Z,102702.06
2023-03-04T07:23:57.986Z,102708.94
2023-03-04T07:28:48.713Z,102708.88
2023-03-04T07:33:42.417Z,102708.97
2023-03-04T07:38:35.121Z,102715.97
2023-03-04T07:43:39.217Z,102728.06
2023-03-04T07:48:41.851Z,102705.09
2023-03-04T07:53:34.259Z,102728.31
2023-03-04T07:58:24.024Z,102738.97
2023-03-04T08:03:15.887Z,102740.06
2023-03-04T08:08:05.832Z,102746.47
2023-03-04T08:13:03.984Z,102744.81
2023-03-04T08:17:54.876Z,102744.09
2023-03-04T08:22:46.765Z,102748.72
2023-03-04T08:27:38.351Z,102743.75
2023-03-04T08:32:32.808Z,102742.19
2023-03-04T08:37:37.064Z,102734.81
2023-03-04T08:42:31.836Z,102736.88
2023-03-04T08:47:22.062Z,102741.59
2023-03-04T08:52:15.682Z,102745.38
2023-03-04T08:57:07.592Z,102735.44
2023-03-04T09:01:59.411Z,102744.03
2023-03-04T09:06:54.215Z,102739.16
2023-03-04T09:11:49.749Z,102725.91
2023-03-04T09:16:45.241Z,102733.16
2023-03-04T09:21:36.410Z,102726.91
2023-03-04T09:26:30.595Z,102721.84
2023-03-04T09:31:28.021Z,102725.44
2023-03-04T09:36:19.486Z,102713.41
2023-03-04T09:41:14.540Z,102713.41
2023-03-04T09:46:08.183Z,102723.44
2023-03-04T09:51:10.830Z,102725.69
2023-03-04T09:56:11.277Z,102709.53
2023-03-04T10:01:05.946Z,102710.28
2023-03-04T10:06:03.980Z,102710.94
2023-03-04T10:11:00.788Z,102706.75
2023-03-04T10:15:54.585Z,102708.66
2023-03-04T10:20:54.829Z,102711.19
2023-03-04T10:25:54.378Z,102721.09
2023-03-04T10:30:56.436Z,102720.50
2023-03-04T10:35:55.171Z,102714.13
2023-03-04T10:40:50.694Z,102710.19
2023-03-04T10:45:45.943Z,102716.91
2023-03-04T10:50:39.932Z,102708.84
2023-03-04T10:55:33.587Z,102705.22
2023-03-04T11:00:34.975Z,102697.56
2023-03-04T11:05:31.316Z,102693.09
2023-03-04T11:10:43.282Z,102677.38
2023-03-04T11:15:36.557Z,102672.72
2023-03-04T11:20:38.960Z,102671.06
2023-03-04T11:25:47.898Z,102666.28
2023-03-04T11:30:52.429Z,102662.94
2023-03-04T11:35:56.681Z,102658.41
2023-03-04T11:40:51.945Z,102657.81
2023-03-04T11:45:51.762Z,102641.28
2023-03-04T11:50:53.570Z,102642.94
2023-03-04T11:55:52.155Z,102640.78
2023-03-04T12:01:01.516Z,102643.81
2023-03-04T12:06:01.629Z,102638.94
2023-03-04T12:10:56.614Z,102639.28
2023-03-04T12:15:53.834Z,102626.56
2023-03-04T12:20:57.623Z,102618.38
2023-03-04T12:26:00.115Z,102610.63
2023-03-04T12:30:59.365Z,102600.63
2023-03-04T12:35:52.139Z,102621.97
2023-03-04T12:40:48.966Z,102607.31
2023-03-04T12:45:43.937Z,102602.78
2023-03-04T12:50:47.782Z,102585.25
2023-03-04T12:55:43.415Z,102599.41
2023-03-04T13:00:44.685Z,102574.78
2023-03-04T13:05:45.744Z,102570.34
2023-03-04T13:10:35.839Z,102570.09
2023-03-04T13:15:40.555Z,102565.03
2023-03-04T13:20:53.672Z,102559.81
2023-03-04T13:25:53.608Z,102563.47
2023-03-04T13:31:00.538Z,102547.47
2023-03-04T13:35:53.571Z,102552.78
2023-03-04T13:40:50.438Z,102540.69
2023-03-04T13:45:47.391Z,102537.84
2023-03-04T13:50:46.299Z,102537.06
2023-03-04T13:55:39.835Z,102539.69
2023-03-04T14:00:48.045Z,102534.25
2023-03-04T14:05:43.159Z,102538.03
2023-03-04T14:10:38.170Z,102533.09
2023-03-04T14:15:32.791Z,102522.72
2023-03-04T14:20:30.951Z,102526.41
2023-03-04T14:25:36.217Z,102517.38
2023-03-04T14:30:42.751Z,102503.59
2023-03-04T14:35:41.771Z,102516.44
2023-03-04T14:40:41.897Z,102507.31
2023-03-04T14:45:34.896Z,102503.25
2023-03-04T14:50:36.170Z,102506.22
2023-03-04T14:55:30.595Z,102499.19
2023-03-04T15:00:36.956Z,102503.88
2023-03-04T15:05:30.680Z,102488.06
2023-03-04T15:10:24.462Z,102500.63
2023-03-04T15:15:29.936Z,102494.31
2023-03-04T15:20:36.729Z,102501.22
2023-03-04T15:25:30.647Z,102485.50
2023-03-04T15:30:21.579Z,102482.78
2023-03-04T15:35:12.425Z,102475.44
2023-03-04T15:40:05.652Z,102477.06
2023-03-04T15:44:58.913Z,102479.19
2023-03-04T15:49:52.774Z,102480.09
2023-03-04T15:54:47.098Z,102474.06
2023-03-04T15:59:40.842Z,102477.44
2023-03-04T16:04:39.236Z,102472.97
2023-03-04T16:09:47.462Z,102472.75
2023-03-04T16:14:38.300Z,102475.03
2023-03-04T16:19:33.930Z,102465.59
2023-03-04T16:24:25.157Z,102464.19
2023-03-04T16:29:19.788Z,102470.88
2023-03-04T16:34:13.860Z,102468.47
2023-03-04T16:39:11.531Z,102464.63
2023-03-04T16:44:06.518Z,102469.09
2023-03-04T16:49:00.338Z,102472.13
2023-03-04T16:53:55.485Z,102465.63
2023-03-04T16:58:51.730Z,102463.78
2023-03-04T17:03:42.592Z,102464.53
2023-03-04T17:08:32.124Z,102464.38
2023-03-04T17:13:21.692Z,102455.91
2023-03-04T17:18:14.503Z,102466.28
2023-03-04T17:23:05.469Z,102462.75
2023-03-04T17:27:56.230Z,102472.00
2023-03-04T17:32:47.803Z,102480.50
2023-03-04T17:37:44.074Z,102490.88
2023-03-04T17:42:38.091Z,102489.91
2023-03-04T17:47:36.212Z,102492.84
2023-03-04T17:52:30.624Z,102489.78
2023-03-04T17:57:26.607Z,102490.38
2023-03-04T18:02:19.861Z,102498.16
2023-03-04T18:07:10.604Z,102506.69
2023-03-04T18:12:00.637Z,102506.59
2023-03-04T18:16:54.770Z,102486.91
2023-03-04T18:21:56.609Z,102502.03
2023-03-04T18:26:46.605Z,102508.72
2023-03-04T18:31:38.542Z,102504.72
2023-03-04T18:36:35.531Z,102504.63
2023-03-04T18:41:27.734Z,102505.22
2023-03-04T18:46:30.711Z,102501.00
2023-03-04T18:51:20.279Z,102493.31
2023-03-04T18:56:15.085Z,102489.13
2023-03-04T19:01:06.577Z,102489.88
2023-03-04T19:06:02.779Z,102488.09
2023-03-04T19:10:56.673Z,102487.03
2023-03-04T19:15:50.218Z,102487.72
2023-03-04T19:20:44.587Z,102482.69
2023-03-04T19:25:40.928Z,102478.34
2023-03-04T19:30:39.756Z,102480.00
2023-03-04T19:35:36.302Z,102485.84
2023-03-04T19:40:29.646Z,102481.75
2023-03-04T19:45:20.120Z,102486.09
2023-03-04T19:50:18.932Z,102483.16
2023-03-04T19:55:13.753Z,102479.66
2023-03-04T20:00:12.830Z,102482.44
2023-03-04T20:05:11.158Z,102486.41
2023-03-04T20:10:03.915Z,102487.97
2023-03-04T20:14:59.032Z,102480.13
2023-03-04T20:19:49.132Z,102497.22
2023-03-04T20:24:39.296Z,102495.88
2023-03-04T20:29:35.542Z,102493.06
2023-03-04T20:34:28.131Z,102494.63
2023-03-04T20:39:28.748Z,102493.94
2023-03-04T20:44:26.561Z,102498.25
2023-03-04T20:49:20.317Z,102497.81
2023-03-04T20:54:12.613Z,102490.59
2023-03-04T20:59:04.510Z,102488.00
2023-03-04T21:03:56.414Z,102478.56
2023-03-04T21:08:51.995Z,102471.47
2023-03-04T21:13:54.131Z,102471.59
2023-03-04T21:18:48.072Z,102459.41
2023-03-04T21:23:42.492Z,102463.72
2023-03-04T21:28:33.452Z,102457.66
2023-03-04T21:33:37.767Z,102466.94
2023-03-04T21:38:28.327Z,102449.53
2023-03-04T21:43:27.510Z,102455.91
2023-03-04T21:48:18.521Z,102452.25
2023-03-04T21:53:23.104Z,102458.53
2023-03-04T21:58:15.726Z,102448.34
2023-03-04T22:03:05.852Z,102450.38
2023-03-04T22:08:03.586Z,102444.53
2023-03-04T22:13:01.726Z,102437.69
2023-03-04T22:17:52.332Z,102441.22
2023-03-04T22:22:55.402Z,102434.34
2023-03-04T22:27:46.237Z,102441.34
2023-03-04T22:32:38.545Z,102443.78
2023-03-04T22:37:28.524Z,102443.59
2023-03-04T22:42:20.347Z,102423.81
2023-03-04T22:47:10.126Z,102426.31
2023-03-04T22:52:02.488Z,102422.94
2023-03-04T22:56:54.337Z,102421.31
2023-03-04T23:01:47.099Z,102413.59
2023-03-04T23:06:40.071Z,102415.50
2023-03-04T23:11:43.264Z,102410.50
2023-03-04T23:16:37.452Z,102397.56
2023-03-04T23:21:31.269Z,102392.28
2023-03-04T23:26:32.413Z,102380.31
2023-03-04T23:31:29.165Z,102382.09
2023-03-04T23:36:23.245Z,102381.97
2023-03-04T23:41:14.015Z,102386.06
2023-03-04T23:46:03.825Z,102381.72
2023-03-04T23:51:06.825Z,102379.88
2023-03-04T23:56:01.733Z,102380.50
